Time;durP1;ratioP1;P1;durP2;ratioP2;P2;SDS_P1;SDS_P2;PMS_P1;PMS_P2;Temp;Humidity;BMP_temperature;BMP_pressure;BME280_temperature;BME280_humidity;BME280_pressure;Samples;Min_cycle;Max_cycle;Signal;HPM_P1;HPM_P2
2023/06/23 00:01:32;;;;;;;13.75;7.35;;;;;;;23.12;63.83;98784.41;5098380;28;20465;-93
2023/06/23 00:03:59;;;;;;;14.90;8.60;;;;;;;23.36;62.95;98797.03;5097943;28;20062;-94
2023/06/23 00:06:25;;;;;;;16.45;8.23;;;;;;;23.43;62.29;98791.97;5098622;28;20121;-93
2023/06/23 00:08:52;;;;;;;18.23;8.20;;;;;;;23.62;61.42;98800.38;5098581;28;20108;-94
2023/06/23 00:11:19;;;;;;;17.45;8.63;;;;;;;23.57;60.68;98780.84;5098215;28;20130;-92
2023/06/23 00:13:45;;;;;;;14.07;8.38;;;;;;;23.77;59.49;98798.31;5098181;28;20063;-93
2023/06/23 00:16:12;;;;;;;15.70;8.70;;;;;;;23.85;58.39;98798.50;5097124;28;20032;-92
2023/06/23 00:18:39;;;;;;;20.30;8.05;;;;;;;24.08;57.76;98807.50;5097920;28;20035;-94
2023/06/23 00:21:06;;;;;;;18.05;8.10;;;;;;;24.03;57.97;98800.72;5098523;28;20489;-95
2023/06/23 00:23:33;;;;;;;13.93;8.20;;;;;;;23.87;58.48;98790.25;5098048;28;20043;-94
2023/06/23 00:25:59;;;;;;;14.68;7.68;;;;;;;23.74;57.33;98771.34;5098325;28;20051;-93
2023/06/23 00:28:25;;;;;;;14.88;8.23;;;;;;;23.81;56.87;98788.88;5097694;28;20523;-94
2023/06/23 00:30:52;;;;;;;12.90;7.85;;;;;;;23.69;56.36;98771.72;5097864;28;20088;-95
2023/06/23 00:33:19;;;;;;;16.42;8.10;;;;;;;23.73;55.18;98761.50;5097213;28;20390;-93
2023/06/23 00:35:45;;;;;;;13.40;7.70;;;;;;;23.72;56.14;98773.31;5098209;28;20044;-94
2023/06/23 00:38:13;;;;;;;13.10;8.35;;;;;;;23.66;56.33;98776.53;5097332;28;20032;-95
2023/06/23 00:40:39;;;;;;;15.90;7.95;;;;;;;23.62;57.12;98764.22;5097976;28;20044;-95
2023/06/23 00:43:07;;;;;;;18.55;8.60;;;;;;;23.53;56.41;98757.66;5097341;28;20547;-93
2023/06/23 00:45:33;;;;;;;13.90;7.75;;;;;;;23.48;57.51;98741.75;5097352;28;20496;-93
2023/06/23 00:48:01;;;;;;;14.05;7.75;;;;;;;23.51;57.31;98765.09;5097743;28;20516;-93
2023/06/23 00:50:29;;;;;;;12.82;8.55;;;;;;;23.33;57.80;98754.72;5096828;28;20053;-93
2023/06/23 00:52:55;;;;;;;12.45;7.97;;;;;;;23.32;57.70;98738.56;5097756;28;20039;-94
2023/06/23 00:55:22;;;;;;;17.33;8.13;;;;;;;23.17;58.08;98740.63;5097724;28;20047;-94
2023/06/23 00:57:49;;;;;;;12.73;7.95;;;;;;;22.88;58.67;98703.09;5097695;28;20134;-94
2023/06/23 01:00:18;;;;;;;15.57;7.95;;;;;;;22.96;59.03;98705.19;5097447;28;20039;-94
2023/06/23 01:02:44;;;;;;;14.10;7.38;;;;;;;22.83;60.06;98690.88;5097820;28;20084;-93
2023/06/23 01:05:10;;;;;;;14.48;7.85;;;;;;;22.50;60.64;98676.28;5097488;28;20046;-94
2023/06/23 01:07:46;;;;;;;12.82;8.30;;;;;;;22.38;61.71;98682.63;5097702;28;20047;-94
2023/06/23 01:10:16;;;;;;;18.08;7.53;;;;;;;22.33;61.69;98705.50;5097533;28;20055;-94
2023/06/23 01:12:50;;;;;;;13.60;8.40;;;;;;;22.34;61.52;98715.38;5097298;28;20158;-94
2023/06/23 01:15:24;;;;;;;16.00;7.47;;;;;;;22.26;60.21;98693.44;5096600;28;20043;-93
2023/06/23 01:18:01;;;;;;;13.05;7.35;;;;;;;22.41;59.41;98710.34;5097095;28;20505;-93
2023/06/23 01:20:33;;;;;;;12.57;7.38;;;;;;;22.55;58.60;98703.88;5096989;28;20047;-92
2023/06/23 01:23:18;;;;;;;12.20;7.13;;;;;;;22.66;56.13;98695.78;5096877;28;20447;-93
2023/06/23 01:25:54;;;;;;;13.52;7.15;;;;;;;22.90;54.36;98711.97;5094943;28;20050;-93
2023/06/23 01:28:46;;;;;;;14.02;6.88;;;;;;;22.95;52.86;98708.91;5096809;28;20059;-93
2023/06/23 01:31:15;;;;;;;11.27;6.60;;;;;;;23.09;53.43;98726.81;5092614;28;20048;-92
2023/06/23 01:33:48;;;;;;;14.52;7.15;;;;;;;22.98;53.81;98695.94;5096983;28;20040;-93
2023/06/23 01:36:19;;;;;;;14.48;6.63;;;;;;;22.95;53.44;98689.91;5098900;28;20082;-93
2023/06/23 01:38:50;;;;;;;12.57;6.65;;;;;;;22.86;55.15;98721.34;5100581;28;20047;-94
2023/06/23 01:41:21;;;;;;;10.23;7.05;;;;;;;22.58;55.94;98728.03;5101195;28;20096;-93
2023/06/23 01:43:55;;;;;;;11.27;6.80;;;;;;;22.53;57.06;98739.25;5100844;28;20062;-94
2023/06/23 01:46:26;;;;;;;12.75;6.93;;;;;;;22.28;58.46;98739.38;5100644;28;20040;-94
2023/06/23 01:48:56;;;;;;;11.75;6.72;;;;;;;22.19;58.36;98732.78;5100164;28;20450;-93
2023/06/23 01:51:24;;;;;;;10.13;6.53;;;;;;;22.07;58.67;98718.28;5100028;28;20497;-93
2023/06/23 01:53:51;;;;;;;16.58;6.88;;;;;;;21.98;58.23;98737.09;5100342;28;20138;-93
2023/06/23 01:56:18;;;;;;;9.75;6.35;;;;;;;21.69;59.03;98699.53;5100520;28;20057;-94
2023/06/23 01:58:46;;;;;;;13.52;6.70;;;;;;;21.65;58.26;98695.31;5100713;28;20097;-93
2023/06/23 02:01:15;;;;;;;8.80;6.13;;;;;;;21.70;58.47;98693.97;5100887;28;20535;-94
2023/06/23 02:03:41;;;;;;;10.15;6.25;;;;;;;21.67;58.43;98674.41;5100705;28;20040;-93
2023/06/23 02:06:08;;;;;;;11.57;6.90;;;;;;;21.56;57.50;98658.06;5100601;28;20044;-94
2023/06/23 02:08:36;;;;;;;13.02;6.97;;;;;;;21.56;59.91;98677.91;5100210;28;20711;-93
2023/06/23 02:11:02;;;;;;;11.80;6.70;;;;;;;21.47;59.38;98675.84;5100631;28;20047;-93
2023/06/23 02:13:30;;;;;;;10.18;6.53;;;;;;;21.59;58.76;98703.88;5100351;28;20048;-94
2023/06/23 02:15:58;;;;;;;10.15;6.43;;;;;;;21.54;58.74;98698.81;5100369;28;20378;-93
2023/06/23 02:18:27;;;;;;;12.55;6.88;;;;;;;21.59;57.11;98706.56;5100546;28;20097;-94
2023/06/23 02:20:54;;;;;;;10.93;7.28;;;;;;;21.62;56.48;98688.28;5100352;28;20527;-94
2023/06/23 02:23:21;;;;;;;11.05;6.35;;;;;;;21.78;56.57;98687.16;5100758;28;20082;-95
2023/06/23 02:25:48;;;;;;;12.82;6.50;;;;;;;21.92;55.97;98687.84;5100070;28;20400;-94
2023/06/23 02:28:14;;;;;;;11.10;6.80;;;;;;;21.87;55.88;98665.66;5100231;28;20043;-94
2023/06/23 02:30:41;;;;;;;10.82;6.25;;;;;;;21.99;55.25;98685.53;5100744;28;20389;-94
2023/06/23 02:33:07;;;;;;;11.25;6.50;;;;;;;22.08;54.02;98673.16;5100335;28;20040;-93
2023/06/23 02:35:34;;;;;;;10.23;6.43;;;;;;;22.24;53.58;98676.44;5099561;28;20057;-93
2023/06/23 02:38:04;;;;;;;11.85;6.22;;;;;;;22.49;51.84;98693.53;5100435;28;20043;-94
2023/06/23 02:40:34;;;;;;;11.85;7.05;;;;;;;22.91;51.20;98720.97;5099532;28;20070;-92
2023/06/23 02:43:05;;;;;;;12.75;6.53;;;;;;;23.10;49.33;98737.53;5099593;28;20046;-92
2023/06/23 02:45:36;;;;;;;10.80;6.38;;;;;;;23.10;48.50;98710.41;5098927;28;20044;-94
2023/06/23 02:48:08;;;;;;;10.48;6.30;;;;;;;23.22;47.27;98732.13;5099052;28;20039;-94
2023/06/23 02:50:38;;;;;;;14.48;6.00;;;;;;;23.32;46.12;98724.97;5099389;28;20036;-92
2023/06/23 02:53:08;;;;;;;9.60;6.00;;;;;;;23.28;46.29;98718.06;5099854;28;20051;-94
2023/06/23 02:55:38;;;;;;;10.88;5.75;;;;;;;23.22;46.14;98726.69;5099467;28;20043;-93
2023/06/23 02:58:07;;;;;;;10.43;5.88;;;;;;;23.27;46.61;98757.91;5099944;28;20042;-94
2023/06/23 03:00:34;;;;;;;11.07;5.22;;;;;;;23.23;47.83;98769.13;5099979;28;20036;-93
2023/06/23 03:03:04;;;;;;;9.25;5.85;;;;;;;23.10;47.62;98778.22;5099961;28;20094;-94
2023/06/23 03:05:30;;;;;;;11.73;5.50;;;;;;;23.01;48.71;98753.66;5099657;28;20044;-94
2023/06/23 03:08:00;;;;;;;14.02;6.78;;;;;;;22.98;48.32;98757.44;5099712;28;20074;-92
2023/06/23 03:10:28;;;;;;;9.48;5.75;;;;;;;22.88;48.37;98735.63;5099652;28;20040;-94
2023/06/23 03:12:54;;;;;;;9.93;6.00;;;;;;;23.08;48.68;98780.19;5100533;28;20101;-94
2023/06/23 03:15:20;;;;;;;9.88;5.93;;;;;;;22.87;48.57;98743.88;5101490;28;20146;-94
2023/06/23 03:17:48;;;;;;;10.15;5.68;;;;;;;22.81;49.06;98738.94;5101056;28;20040;-93
2023/06/23 03:20:24;;;;;;;13.05;5.72;;;;;;;22.92;49.10;98780.50;5100113;28;20126;-93
2023/06/23 03:22:54;;;;;;;9.50;5.93;;;;;;;22.92;49.10;98769.66;5101055;28;20048;-95
2023/06/23 03:25:26;;;;;;;8.85;5.78;;;;;;;22.89;49.42;98786.16;5100517;28;20044;-93
2023/06/23 03:27:55;;;;;;;9.32;5.63;;;;;;;22.68;49.58;98771.53;5099941;28;20071;-94
2023/06/23 03:30:25;;;;;;;9.38;5.72;;;;;;;22.87;49.50;98776.41;5100550;28;20040;-93
2023/06/23 03:32:54;;;;;;;9.93;5.90;;;;;;;22.71;49.64;98774.91;5099763;28;20077;-92
2023/06/23 03:35:25;;;;;;;8.57;5.38;;;;;;;22.70;50.81;98785.84;5098527;28;20043;-94
2023/06/23 03:37:57;;;;;;;10.73;5.80;;;;;;;22.51;51.82;98737.59;5098770;28;20051;-95
2023/06/23 03:40:27;;;;;;;10.48;5.82;;;;;;;22.58;51.25;98784.94;5098477;28;20058;-92
2023/06/23 03:42:56;;;;;;;11.65;6.15;;;;;;;22.42;52.39;98768.97;5098623;28;20039;-93
2023/06/23 03:45:24;;;;;;;13.32;6.22;;;;;;;22.26;53.65;98752.16;5099328;28;20050;-93
2023/06/23 03:47:56;;;;;;;10.38;5.95;;;;;;;22.22;54.94;98756.06;5100210;28;20065;-94
2023/06/23 03:50:27;;;;;;;9.27;6.07;;;;;;;22.12;55.12;98764.88;5100314;28;20520;-94
2023/06/23 03:52:54;;;;;;;11.05;5.38;;;;;;;21.95;55.87;98740.91;5099834;28;20477;-93
2023/06/23 03:55:23;;;;;;;11.23;5.53;;;;;;;21.98;57.47;98751.47;5099252;28;20054;-94
2023/06/23 03:57:52;;;;;;;9.90;5.55;;;;;;;21.95;58.77;98762.56;5099091;28;20089;-94
2023/06/23 04:00:20;;;;;;;10.07;5.63;;;;;;;21.63;57.94;98756.78;5099381;28;20044;-93
2023/06/23 04:02:49;;;;;;;10.20;5.45;;;;;;;21.65;58.04;98754.84;5098870;28;20065;-94
2023/06/23 04:05:16;;;;;;;;;;;;;;;21.95;58.43;98776.09;5099451;28;20043;-94
2023/06/23 04:07:43;;;;;;;9.18;6.13;;;;;;;21.97;56.91;98708.25;5132978;27;20014;-93
2023/06/23 04:10:12;;;;;;;12.77;6.40;;;;;;;22.13;57.05;98716.97;5098573;28;20036;-94
2023/06/23 04:12:38;;;;;;;;;;;;;;;22.16;55.79;98727.56;5099102;28;20047;-93
2023/06/23 04:15:09;;;;;;;14.75;6.30;;;;;;;22.17;55.38;98726.59;5098272;28;20280;-95
2023/06/23 04:17:40;;;;;;;13.13;7.05;;;;;;;22.20;55.87;98737.19;5083731;28;20040;-94
2023/06/23 04:20:08;;;;;;;12.48;6.50;;;;;;;22.32;57.72;98717.34;5099407;28;20067;-94
2023/06/23 04:22:36;;;;;;;10.67;6.20;;;;;;;22.26;58.74;98700.69;5099454;28;20047;-93
2023/06/23 04:25:03;;;;;;;;;;;;;;;22.26;58.15;98734.06;5099693;28;20050;-95
2023/06/23 04:27:31;;;;;;;21.48;6.57;;;;;;;22.09;58.87;98702.78;5098820;28;20034;-93
2023/06/23 04:29:59;;;;;;;15.80;6.60;;;;;;;22.26;60.21;98728.66;5099055;28;20039;-93
2023/06/23 04:32:27;;;;;;;13.52;6.88;;;;;;;22.15;61.31;98707.75;5099037;28;20078;-94
2023/06/23 04:34:53;;;;;;;15.27;7.05;;;;;;;22.28;59.11;98664.38;5098657;28;20051;-94
2023/06/23 04:37:23;;;;;;;17.23;7.25;;;;;;;22.38;57.80;98655.53;5099010;28;20040;-94
2023/06/23 04:39:54;;;;;;;12.48;6.80;;;;;;;22.64;57.98;98654.38;5098343;28;20071;-93
2023/06/23 04:42:25;;;;;;;14.80;6.57;;;;;;;22.72;58.64;98657.34;5098629;28;20047;-93
2023/06/23 04:44:55;;;;;;;14.63;7.10;;;;;;;22.51;58.65;98621.97;5098577;28;20047;-94
2023/06/23 04:47:25;;;;;;;12.07;6.47;;;;;;;22.17;58.88;98620.13;5099045;28;20074;-95
2023/06/23 04:49:57;;;;;;;13.90;7.10;;;;;;;22.18;57.77;98616.41;5099007;28;20175;-94
2023/06/23 04:52:26;;;;;;;10.10;5.88;;;;;;;22.53;56.32;98605.56;5100106;28;20062;-93
2023/06/23 04:54:53;;;;;;;;;;;;;;;22.84;55.29;98616.69;5099924;28;20454;-94
2023/06/23 04:57:21;;;;;;;9.57;6.53;;;;;;;22.91;54.58;98621.50;5099397;28;19942;-95
2023/06/23 04:59:51;;;;;;;10.80;6.15;;;;;;;23.07;53.70;98555.19;5099304;28;20071;-95
2023/06/23 05:02:19;;;;;;;11.43;5.80;;;;;;;23.34;52.01;98535.78;5099606;28;20150;-93
2023/06/23 05:04:47;;;;;;;9.50;5.75;;;;;;;23.66;51.09;98557.53;5100168;28;20493;-93
2023/06/23 05:07:18;;;;;;;15.93;6.35;;;;;;;23.78;50.62;98596.38;5100603;28;20089;-95
2023/06/23 05:09:47;;;;;;;11.40;6.80;;;;;;;23.78;50.06;98678.69;5098218;28;20074;-94
2023/06/23 05:12:15;;;;;;;16.25;6.65;;;;;;;23.71;52.51;98739.03;5102223;28;20079;-95
2023/06/23 05:14:43;;;;;;;15.00;6.70;;;;;;;23.69;55.48;98739.13;5095092;28;20052;-95
2023/06/23 05:17:12;;;;;;;16.73;7.60;;;;;;;23.05;54.55;98771.44;5094967;28;20043;-94
2023/06/23 05:19:41;;;;;;;;;;;;;;;23.12;55.85;98772.69;5103656;28;20044;-94
2023/06/23 05:22:08;;;;;;;13.55;6.53;;;;;;;22.90;55.01;98717.41;5102206;28;19960;-93
2023/06/23 05:24:39;;;;;;;13.95;6.50;;;;;;;22.92;56.10;98717.25;5100983;28;20467;-93
2023/06/23 05:27:08;;;;;;;14.40;7.10;;;;;;;22.93;55.86;98741.53;5101142;28;20139;-94
2023/06/23 05:29:38;;;;;;;15.30;6.60;;;;;;;22.89;55.96;98703.94;5101588;28;20040;-93
2023/06/23 05:32:06;;;;;;;18.08;6.05;;;;;;;23.09;55.49;98689.69;5101717;28;20043;-94
2023/06/23 05:34:32;;;;;;;;;;;;;;;23.08;58.08;98712.38;5102028;28;20048;-94
2023/06/23 05:37:01;;;;;;;15.30;6.68;;;;;;;22.74;59.44;98700.59;5108061;28;19923;-94
2023/06/23 05:39:28;;;;;;;12.27;6.20;;;;;;;22.82;59.43;98721.69;5101178;28;20039;-93
2023/06/23 05:41:55;;;;;;;12.15;6.65;;;;;;;22.97;61.73;98734.03;5101380;28;20044;-94
2023/06/23 05:44:21;;;;;;;14.38;6.28;;;;;;;23.04;60.79;98753.44;5100861;28;20051;-94
2023/06/23 05:46:51;;;;;;;12.80;6.35;;;;;;;22.99;60.81;98737.50;5100928;28;20439;-95
2023/06/23 05:49:21;;;;;;;12.65;6.75;;;;;;;23.27;59.31;98741.63;5101056;28;20043;-94
2023/06/23 05:51:52;;;;;;;14.13;6.30;;;;;;;23.43;59.37;98748.53;5101686;28;20101;-92
2023/06/23 05:54:20;;;;;;;13.18;6.88;;;;;;;23.36;62.77;98730.03;5102115;28;20043;-94
2023/06/23 05:56:51;;;;;;;13.20;6.55;;;;;;;23.34;60.95;98717.59;5102335;28;20040;-93
2023/06/23 05:59:25;;;;;;;13.07;6.93;;;;;;;23.32;62.32;98716.84;5100249;28;20069;-93
2023/06/23 06:01:57;;;;;;;12.25;6.47;;;;;;;23.12;62.93;98713.88;5098088;28;20500;-92
2023/06/23 06:04:26;;;;;;;19.08;7.30;;;;;;;23.07;65.91;98713.34;5100082;28;20454;-92
2023/06/23 06:06:54;;;;;;;15.77;7.20;;;;;;;23.06;66.92;98719.78;5099945;28;20492;-93
2023/06/23 06:09:21;;;;;;;13.73;6.85;;;;;;;23.05;64.24;98707.22;5100287;28;20464;-94
2023/06/23 06:11:48;;;;;;;16.63;7.68;;;;;;;23.02;62.72;98715.59;5100060;28;20036;-93
2023/06/23 06:14:15;;;;;;;19.45;8.52;;;;;;;23.20;60.47;98723.25;5100656;28;20035;-92
2023/06/23 06:16:43;;;;;;;18.75;8.25;;;;;;;23.69;60.17;98735.56;5099234;28;20036;-90
2023/06/23 06:19:10;;;;;;;17.00;8.37;;;;;;;24.28;59.59;98732.47;5100201;28;20484;-93
2023/06/23 06:21:39;;;;;;;17.95;7.55;;;;;;;24.95;55.63;98725.00;5100147;28;20036;-94
2023/06/23 06:24:07;;;;;;;18.02;7.82;;;;;;;25.50;54.87;98741.06;5100445;28;20463;-92
2023/06/23 06:26:33;;;;;;;18.80;8.07;;;;;;;25.76;52.23;98726.00;5101208;28;20047;-93
2023/06/23 06:29:01;;;;;;;15.02;7.63;;;;;;;25.98;51.72;98733.09;5099859;28;20048;-94
2023/06/23 06:31:31;;;;;;;20.02;7.97;;;;;;;26.06;52.07;98726.94;5100759;28;20067;-94
2023/06/23 06:34:00;;;;;;;16.38;6.95;;;;;;;25.93;51.88;98740.81;5100945;28;20044;-93
2023/06/23 06:36:29;;;;;;;16.60;7.57;;;;;;;26.23;51.76;98739.88;5101376;28;20071;-95
2023/06/23 06:38:57;;;;;;;16.85;7.78;;;;;;;26.57;49.51;98717.69;5101189;28;20450;-94
2023/06/23 06:41:24;;;;;;;16.90;7.40;;;;;;;27.04;49.20;98735.97;5100716;28;20047;-94
2023/06/23 06:43:50;;;;;;;17.10;7.85;;;;;;;27.42;49.25;98734.19;5099026;28;20047;-94
2023/06/23 06:46:18;;;;;;;18.23;7.55;;;;;;;27.42;47.80;98721.38;5099963;28;20417;-94
2023/06/23 06:48:49;;;;;;;17.88;7.03;;;;;;;27.66;47.90;98728.19;5096118;28;20079;-95
2023/06/23 06:51:18;;;;;;;21.05;7.68;;;;;;;27.75;47.84;98723.69;5100540;28;20501;-94
2023/06/23 06:53:44;;;;;;;17.38;7.10;;;;;;;27.52;48.36;98720.47;5100552;28;20127;-93
2023/06/23 06:56:11;;;;;;;17.42;7.43;;;;;;;27.25;47.99;98705.78;5100403;28;20042;-93
2023/06/23 06:58:37;;;;;;;20.73;8.13;;;;;;;27.23;48.69;98716.84;5100273;28;20043;-94
2023/06/23 07:01:04;;;;;;;18.50;7.57;;;;;;;26.86;51.75;98697.69;5098648;28;20028;-94
2023/06/23 07:03:32;;;;;;;16.27;7.38;;;;;;;27.24;49.29;98706.81;5100483;28;20042;-92
2023/06/23 07:05:58;;;;;;;19.98;7.07;;;;;;;27.19;48.14;98714.53;5099671;28;20039;-93
2023/06/23 07:08:25;;;;;;;15.93;7.60;;;;;;;27.28;48.92;98700.03;5099778;28;20382;-94
2023/06/23 07:10:51;;;;;;;13.15;6.93;;;;;;;27.63;47.49;98709.38;5099538;28;20139;-94
2023/06/23 07:13:17;;;;;;;27.17;8.38;;;;;;;27.88;45.77;98693.31;5099363;28;20465;-94
2023/06/23 07:15:43;;;;;;;21.92;7.47;;;;;;;28.17;46.55;98698.56;5100020;28;20040;-95
2023/06/23 07:18:09;;;;;;;19.23;8.13;;;;;;;28.54;46.20;98722.19;5099231;28;20044;-93
2023/06/23 07:20:35;;;;;;;23.55;7.88;;;;;;;28.54;46.35;98705.78;5100349;28;20054;-93
2023/06/23 07:23:01;;;;;;;23.83;8.00;;;;;;;28.44;45.51;98697.63;5097764;28;20085;-94
2023/06/23 07:25:28;;;;;;;16.17;7.53;;;;;;;28.61;46.19;98699.53;5099612;28;20066;-95
2023/06/23 07:27:54;;;;;;;24.67;7.93;;;;;;;28.26;47.11;98725.00;5099627;28;20497;-93
2023/06/23 07:30:20;;;;;;;24.85;8.90;;;;;;;28.51;47.20;98723.38;5098598;28;20058;-95
2023/06/23 07:32:45;;;;;;;19.13;7.72;;;;;;;28.65;45.63;98721.97;5097958;28;20039;-93
2023/06/23 07:35:11;;;;;;;16.95;7.80;;;;;;;28.66;45.06;98710.00;5099541;28;20042;-95
2023/06/23 07:37:38;;;;;;;18.35;7.80;;;;;;;28.63;44.43;98705.69;5100566;28;20111;-95
2023/06/23 07:40:05;;;;;;;12.43;7.15;;;;;;;28.81;44.93;98713.88;5098746;28;20036;-94
2023/06/23 07:42:32;;;;;;;17.98;8.13;;;;;;;28.59;45.98;98709.75;5098338;28;20415;-93
2023/06/23 07:44:58;;;;;;;22.80;8.32;;;;;;;28.56;45.35;98695.53;5097556;28;20057;-94
2023/06/23 07:47:24;;;;;;;19.85;8.18;;;;;;;28.57;46.41;98710.94;5098017;28;20138;-93
2023/06/23 07:49:50;;;;;;;16.67;7.65;;;;;;;28.77;45.18;98700.66;5097927;28;20039;-93
2023/06/23 07:52:16;;;;;;;21.00;8.30;;;;;;;28.52;45.79;98703.22;5098801;28;20051;-95
2023/06/23 07:54:42;;;;;;;29.13;8.35;;;;;;;28.11;46.49;98710.13;5098617;28;20040;-93
2023/06/23 07:57:08;;;;;;;15.20;7.50;;;;;;;28.51;45.26;98712.41;5100459;28;20046;-94
2023/06/23 07:59:35;;;;;;;20.05;8.57;;;;;;;28.68;43.62;98688.81;5099765;28;20043;-93
2023/06/23 08:02:01;;;;;;;15.95;7.32;;;;;;;29.05;42.64;98698.66;5098498;28;20036;-95
2023/06/23 08:04:27;;;;;;;19.60;7.45;;;;;;;28.88;41.32;98689.47;5098754;28;20135;-94
2023/06/23 08:06:53;;;;;;;13.80;7.05;;;;;;;28.87;41.33;98713.25;5099136;28;20111;-93
2023/06/23 08:09:19;;;;;;;18.08;6.70;;;;;;;29.14;41.52;98705.91;5099945;28;20050;-93
2023/06/23 08:11:45;;;;;;;15.20;7.43;;;;;;;29.53;41.08;98690.91;5099049;28;20039;-94
2023/06/23 08:14:11;;;;;;;17.35;7.10;;;;;;;29.72;40.14;98698.03;5098481;28;20040;-93
2023/06/23 08:16:39;;;;;;;21.67;6.95;;;;;;;29.83;40.09;98687.63;5099209;28;20053;-94
2023/06/23 08:19:05;;;;;;;14.00;7.07;;;;;;;30.28;40.03;98719.28;5099610;28;20400;-94
2023/06/23 08:21:31;;;;;;;16.63;7.10;;;;;;;30.08;39.06;98709.63;5100009;28;20047;-91
2023/06/23 08:23:57;;;;;;;14.15;7.47;;;;;;;30.20;39.65;98704.69;5098337;28;20551;-93
2023/06/23 08:26:23;;;;;;;16.15;7.13;;;;;;;30.62;40.51;98714.69;5099010;28;20138;-93
2023/06/23 08:28:49;;;;;;;15.75;7.65;;;;;;;30.69;40.11;98708.34;5099312;28;20044;-95
2023/06/23 08:31:15;;;;;;;14.30;7.22;;;;;;;30.74;38.65;98691.38;5099336;28;20042;-95
2023/06/23 08:33:43;;;;;;;21.65;9.57;;;;;;;30.18;40.33;98723.19;5098082;28;20124;-94
2023/06/23 08:36:09;;;;;;;20.15;7.50;;;;;;;29.92;41.45;98706.84;5097759;28;20044;-93
2023/06/23 08:38:34;;;;;;;17.15;7.75;;;;;;;30.07;40.83;98722.47;5098183;28;20048;-93
2023/06/23 08:41:00;;;;;;;19.02;7.55;;;;;;;30.07;40.29;98702.41;5097450;28;20035;-92
2023/06/23 08:43:27;;;;;;;12.55;6.95;;;;;;;30.01;40.82;98708.56;5098776;28;20043;-93
2023/06/23 08:45:55;;;;;;;19.52;7.00;;;;;;;29.73;41.42;98703.31;5096723;28;20056;-92
2023/06/23 08:48:23;;;;;;;;;;;;;;;29.60;41.81;98712.00;5099023;28;20088;-93
2023/06/23 08:50:52;;;;;;;16.87;6.90;;;;;;;29.86;41.30;98724.78;5096607;28;19920;-92
2023/06/23 08:53:18;;;;;;;13.60;7.10;;;;;;;29.67;41.44;98717.69;5096891;28;20283;-93
2023/06/23 08:55:44;;;;;;;14.43;7.00;;;;;;;30.15;40.75;98701.59;5096379;28;20389;-92
2023/06/23 08:58:10;;;;;;;16.30;7.00;;;;;;;30.21;41.07;98696.28;5096043;28;20039;-93
2023/06/23 09:00:36;;;;;;;18.85;7.20;;;;;;;30.78;39.90;98692.75;5097500;28;20040;-94
2023/06/23 09:03:03;;;;;;;20.77;7.45;;;;;;;30.64;39.74;98718.13;5095546;28;20035;-93
2023/06/23 09:05:29;;;;;;;16.83;7.38;;;;;;;29.93;41.38;98700.31;5094788;28;20036;-92
2023/06/23 09:07:56;;;;;;;15.80;7.18;;;;;;;30.24;41.43;98703.31;5095024;28;20427;-92
2023/06/23 09:10:24;;;;;;;19.07;7.33;;;;;;;30.16;40.97;98698.66;5095268;28;20075;-92
2023/06/23 09:13:16;;;;;;;16.95;8.23;;;;;;;29.68;41.28;98706.53;5096113;28;20040;-91
2023/06/23 09:15:45;;;;;;;15.75;7.57;;;;;;;30.24;41.17;98706.91;5092638;28;20505;-93
2023/06/23 09:18:12;;;;;;;18.05;7.22;;;;;;;30.73;41.07;98683.28;5089420;28;20405;-92
2023/06/23 09:20:40;;;;;;;17.10;7.57;;;;;;;30.44;40.68;98685.53;5095356;28;20500;-94
2023/06/23 09:23:08;;;;;;;14.30;7.30;;;;;;;30.43;41.83;98705.78;5094847;28;20061;-93
2023/06/23 09:25:37;;;;;;;20.97;8.07;;;;;;;30.79;41.12;98699.94;5095953;28;20071;-93
2023/06/23 09:28:04;;;;;;;17.73;7.75;;;;;;;30.93;40.25;98681.09;5095603;28;20688;-93
2023/06/23 09:30:32;;;;;;;16.88;7.40;;;;;;;30.87;41.66;98691.72;5094313;28;20031;-93
2023/06/23 09:32:59;;;;;;;17.52;7.88;;;;;;;30.97;41.20;98690.69;5095578;28;20042;-92
2023/06/23 09:35:24;;;;;;;15.93;7.53;;;;;;;31.13;40.87;98681.56;5095272;28;20044;-93
2023/06/23 09:37:50;;;;;;;17.02;8.18;;;;;;;30.61;41.33;98691.88;5095411;28;20908;-93
2023/06/23 09:40:25;;;;;;;19.65;8.27;;;;;;;30.14;42.43;98684.25;5096654;28;20180;-92
2023/06/23 09:42:56;;;;;;;18.30;7.80;;;;;;;30.60;43.80;98681.94;5095831;28;20048;-92
2023/06/23 09:45:23;;;;;;;17.73;8.43;;;;;;;30.94;42.48;98672.66;5093691;28;20067;-92
2023/06/23 09:47:49;;;;;;;20.13;8.48;;;;;;;30.89;42.83;98669.59;5094613;28;20493;-92
2023/06/23 09:50:16;;;;;;;17.80;8.27;;;;;;;31.28;41.70;98666.94;5094479;28;20078;-93
2023/06/23 09:52:42;;;;;;;21.25;8.18;;;;;;;31.63;39.98;98673.00;5090862;28;20047;-92
2023/06/23 09:55:08;;;;;;;19.65;7.93;;;;;;;31.57;40.15;98648.97;5094538;28;20035;-90
2023/06/23 09:57:36;;;;;;;25.13;8.05;;;;;;;30.97;41.30;98668.72;5096354;28;20092;-91
2023/06/23 10:00:03;;;;;;;;;;;;;;;30.50;43.02;98673.88;5100110;28;20126;-92
2023/06/23 10:02:30;;;;;;;17.58;7.90;;;;;;;30.09;43.74;98645.53;5099165;28;19920;-91
2023/06/23 10:04:58;;;;;;;15.10;7.90;;;;;;;30.65;42.74;98657.56;5098259;28;20032;-93
2023/06/23 10:07:26;;;;;;;18.20;7.75;;;;;;;30.96;43.30;98650.53;5098665;28;20036;-93
2023/06/23 10:09:53;;;;;;;21.85;8.15;;;;;;;31.40;42.37;98664.63;5097856;28;20044;-92
2023/06/23 10:12:22;;;;;;;19.52;7.65;;;;;;;31.16;42.86;98651.84;5097668;28;20064;-92
2023/06/23 10:14:50;;;;;;;20.95;8.00;;;;;;;31.28;43.17;98644.94;5096373;28;20130;-92
2023/06/23 10:17:16;;;;;;;;;;;;;;;31.53;42.35;98655.88;5096557;28;20027;-91
2023/06/23 10:19:42;;;;;;;17.05;8.55;;;;;;;30.87;43.83;98650.53;5131962;27;19938;-91
2023/06/23 10:22:10;;;;;;;15.45;7.78;;;;;;;30.73;44.86;98640.25;5097207;28;20032;-92
2023/06/23 10:24:36;;;;;;;19.42;7.65;;;;;;;31.24;43.95;98648.22;5097308;28;20047;-92
2023/06/23 10:27:05;;;;;;;16.33;8.20;;;;;;;31.54;43.29;98657.59;5097855;28;20032;-91
2023/06/23 10:29:34;;;;;;;16.60;8.63;;;;;;;31.66;43.21;98652.53;5098609;28;20048;-94
2023/06/23 10:32:06;;;;;;;22.02;8.05;;;;;;;31.77;43.17;98637.53;5096220;28;20047;-92
2023/06/23 10:34:33;;;;;;;22.02;8.35;;;;;;;31.65;43.78;98640.69;5097479;28;20088;-92
2023/06/23 10:37:03;;;;;;;22.05;8.63;;;;;;;31.13;43.17;98637.63;5095611;28;20666;-92
2023/06/23 10:39:33;;;;;;;20.73;7.88;;;;;;;31.47;43.26;98624.47;5097596;28;20061;-92
2023/06/23 10:42:00;;;;;;;16.17;7.05;;;;;;;31.76;42.34;98627.59;5096390;28;20123;-91
2023/06/23 10:44:27;;;;;;;20.85;8.40;;;;;;;31.22;42.77;98625.56;5095811;28;20043;-93
2023/06/23 10:46:53;;;;;;;21.58;8.23;;;;;;;31.40;42.67;98617.06;5094879;28;20116;-94
2023/06/23 10:49:22;;;;;;;19.00;7.80;;;;;;;31.61;41.71;98625.59;5093195;28;20041;-91
2023/06/23 10:51:48;;;;;;;17.00;7.82;;;;;;;31.55;42.07;98628.22;5094298;28;20032;-91
2023/06/23 10:54:26;;;;;;;25.10;7.88;;;;;;;31.55;42.15;98629.06;5093972;28;21192;-93
2023/06/23 10:56:53;;;;;;;20.67;7.80;;;;;;;31.62;42.01;98609.94;5095677;28;20044;-93
2023/06/23 10:59:21;;;;;;;18.02;7.93;;;;;;;31.61;41.18;98602.75;5095465;28;20054;-94
2023/06/23 11:02:17;;;;;;;19.00;7.95;;;;;;;31.69;43.20;98592.56;5094632;28;20042;-92
2023/06/23 11:04:52;;;;;;;17.77;7.35;;;;;;;31.81;40.74;98605.91;4996976;28;20041;-93
2023/06/23 11:07:18;;;;;;;20.85;8.25;;;;;;;31.41;41.61;98600.41;4995275;28;20096;-94
2023/06/23 11:09:49;;;;;;;17.63;7.35;;;;;;;31.13;43.19;98605.50;4997596;28;20492;-94
2023/06/23 11:12:31;;;;;;;22.92;8.38;;;;;;;30.97;42.31;98603.69;4996584;28;20132;-91
2023/06/23 11:15:11;;;;;;;15.98;8.07;;;;;;;30.88;42.26;98597.38;4998409;28;20037;-92
2023/06/23 11:17:41;;;;;;;13.90;7.20;;;;;;;31.22;41.06;98593.44;4998835;28;20148;-92
2023/06/23 11:20:12;;;;;;;15.35;7.45;;;;;;;31.15;41.32;98584.22;4996116;28;20042;-93
2023/06/23 11:22:40;;;;;;;22.90;7.45;;;;;;;31.23;40.91;98591.56;5000585;28;20118;-94
2023/06/23 11:25:07;;;;;;;15.88;7.07;;;;;;;31.36;41.55;98564.38;5000328;28;20046;-92
2023/06/23 11:27:33;;;;;;;16.70;7.20;;;;;;;31.58;40.34;98570.16;5000547;28;20046;-92
2023/06/23 11:30:20;;;;;;;14.60;7.65;;;;;;;31.51;40.75;98565.38;5002473;28;20133;-94
2023/06/23 11:33:24;;;;;;;18.00;7.20;;;;;;;31.66;41.20;98578.31;4996189;28;20042;-93
2023/06/23 11:35:51;;;;;;;17.85;7.85;;;;;;;31.67;42.11;98566.31;4998793;28;20311;-93